Airfield :
LOGIN :

Register | Disclaimer

   EN    FR    IT 

 










Legend :    VFR   Marginal VFR   IFR   Intensive IFR   Very Intensive IFR
Visi :
Ceiling :
>= 8 km
>= 3000ft
5 to 8 km
1000 to 3000 ft
1500m to 5 km
500 to 1000 ft
800 to 1500m
200 to 500 ft
< 800m
< 200 ft
Symbols :   Thunderstorms  Fog  Heavy snow  Heavy precipitations  Wind > 20 kt
SIGMETs :     Misc.  Thunderstorms  Icing  Turbulence  Mountain Waves  Volcanic Ashes







- Airport Elevation : 215 ft
- IATA code : ABZ
- Download approach charts


EGPD - Aberdeen / Dyce

CURRENT METAR :
  • 220420Z AUTO 35011KT 9999 BKN009 OVC013 08/06 Q1025

EXPIRED METARs :
  • 220350Z AUTO 35010KT 9999 BKN008 OVC012 08/06 Q1025
  • 220320Z AUTO 35011KT 9999 OVC009 08/06 Q1024
  • 220250Z AUTO 35012KT 9999 BKN007 OVC011 08/06 Q1024 NOSIG
  • 220220Z AUTO 35011KT 6000 OVC007 08/06 Q1024 NOSIG
  • 220150Z AUTO 35013KT 9999 BKN009 OVC014 08/06 Q1024 NOSIG

TAF TAF EGPD
Valid from the 22 at 00:00 until the 23 at 00:00 UTC


212256Z 2200/2224 34012KT 9999 BKN010
PROB40
TEMPO 2200/2212 4000 -RADZ BR BKN004
PROB40
TEMPO 2200/2206 35016G26KT
BECMG 2212/2215 SCT015
TEMPO 2215/2224 BKN012
No reported NOTAMs for that airfield.



MET'MAP, your aeronautical weather chart ! - Copyright ORBIFLY December 2007 - Disclaimer

ORBIFLY MET'MAP TEAM :

Programming & Development : Alexandra Zaïnal
Concept & Development : Baudouin d'Aumeries
Co-Development & Prog : Marc-Olivier Méhu
Technical & hardware support : Manuel Goepfert

Contact : metmap@orbifly.com




SOURCES & CREDITS :

   NOAA